Portada
METAR-TAF:

METAR-TAF

Aeropuertos :

Harbin, China

Aeropuerto Internacional de Harbin

latitud: 45-45N, longitud: 126-46E, altitud: 143 m

Observación

El informe se hizo hace 1 hora y 13 minutos, a las 22:00 UTC
Viento 6 kt del oeste
Temperatura -16°C
Humedad 78%
Presión 1025 hPa
Visibilidad 10 km o más
sin nubes por debajo de 1500 m y sin presencia de cumulonimbus.

METAR: ZYHB 172200Z 26003MPS CAVOK M16/M19 Q1025 NOSIG

Hora: 07:13 (23:13 UTC)

Pronóstico

El informe se hizo hace 7 horas y 55 minutos, a las 15:18 UTC
Pronóstico válido del 17 a las 18 UTC al 18 a las 18 UTC
Viento 8 kt del oeste-noroeste
Visibilidad: 6000 m
Nubes dispersas a una altura de 3000 ft
Temporalmente
del 17 a las 18 UTC al 17 a las 24 UTC
Visibilidad: 2000 m
chaparrones de nieve, neblina

TAF: ZYHB 171518Z 1718/1818 30004MPS 6000 SCT030 TXM04/06Z TNM17/22Z TEMPO 1718/1724 2000 -SHSN BR

Observaciones y pronósticos meteorológicos de más de 4000 aeropuertos (mensajes METAR y TAF).

Los puntos amarillos y rojos representan las estaciones disponibles.

Ponga el ratón en el punto deseado para ver el nombre de la estación.

Haga clic para ver las observaciones y los pronósticos meteorológicos.

Para cambiar el mapa : haga clic en los botones verdes con una cruz de color negro para hacer un zoom, en el botón verde con un guión para alejar o en las flechas verdes para mapas adyacentes.


METAR-TAF: